sensor_id;sensor_type;location;lat;lon;timestamp;P1;durP1;ratioP1;P2;durP2;ratioP2
67456;SDS011;54319;52.038;4.640;2023-03-08T00:00:40;6.57;;;4.30;;
67456;SDS011;54319;52.038;4.640;2023-03-08T00:03:08;8.77;;;4.47;;
67456;SDS011;54319;52.038;4.640;2023-03-08T00:05:38;5.68;;;4.43;;
67456;SDS011;54319;52.038;4.640;2023-03-08T00:08:05;8.93;;;4.28;;
67456;SDS011;54319;52.038;4.640;2023-03-08T00:10:33;10.18;;;4.70;;
67456;SDS011;54319;52.038;4.640;2023-03-08T00:12:59;9.75;;;4.18;;
67456;SDS011;54319;52.038;4.640;2023-03-08T00:15:26;8.35;;;4.53;;
67456;SDS011;54319;52.038;4.640;2023-03-08T00:17:54;6.97;;;4.10;;
67456;SDS011;54319;52.038;4.640;2023-03-08T00:22:47;6.43;;;3.88;;
67456;SDS011;54319;52.038;4.640;2023-03-08T00:25:14;4.80;;;3.90;;
67456;SDS011;54319;52.038;4.640;2023-03-08T00:27:42;5.33;;;3.53;;
67456;SDS011;54319;52.038;4.640;2023-03-08T00:30:09;10.35;;;4.13;;
67456;SDS011;54319;52.038;4.640;2023-03-08T00:32:37;6.35;;;4.07;;
67456;SDS011;54319;52.038;4.640;2023-03-08T00:35:04;6.57;;;4.22;;
67456;SDS011;54319;52.038;4.640;2023-03-08T00:37:31;8.32;;;4.28;;
67456;SDS011;54319;52.038;4.640;2023-03-08T00:39:57;6.68;;;4.30;;
67456;SDS011;54319;52.038;4.640;2023-03-08T00:42:24;5.57;;;3.90;;
67456;SDS011;54319;52.038;4.640;2023-03-08T00:44:52;5.57;;;4.25;;
67456;SDS011;54319;52.038;4.640;2023-03-08T00:47:19;7.68;;;4.25;;
67456;SDS011;54319;52.038;4.640;2023-03-08T00:49:45;5.63;;;4.18;;
67456;SDS011;54319;52.038;4.640;2023-03-08T00:52:12;8.15;;;4.40;;
67456;SDS011;54319;52.038;4.640;2023-03-08T00:54:38;6.40;;;3.58;;
67456;SDS011;54319;52.038;4.640;2023-03-08T00:57:05;8.73;;;4.40;;
67456;SDS011;54319;52.038;4.640;2023-03-08T00:59:32;6.25;;;3.10;;
67456;SDS011;54319;52.038;4.640;2023-03-08T01:02:00;3.65;;;2.58;;
67456;SDS011;54319;52.038;4.640;2023-03-08T01:04:27;3.35;;;2.35;;
67456;SDS011;54319;52.038;4.640;2023-03-08T01:06:53;3.58;;;2.50;;
67456;SDS011;54319;52.038;4.640;2023-03-08T01:09:20;6.22;;;2.25;;
67456;SDS011;54319;52.038;4.640;2023-03-08T01:11:47;3.38;;;2.40;;
67456;SDS011;54319;52.038;4.640;2023-03-08T01:14:13;2.95;;;2.33;;
67456;SDS011;54319;52.038;4.640;2023-03-08T01:16:41;3.63;;;2.10;;
67456;SDS011;54319;52.038;4.640;2023-03-08T01:21:36;3.17;;;2.17;;
67456;SDS011;54319;52.038;4.640;2023-03-08T01:24:03;3.35;;;2.35;;
67456;SDS011;54319;52.038;4.640;2023-03-08T01:26:30;2.75;;;2.10;;
67456;SDS011;54319;52.038;4.640;2023-03-08T01:28:57;3.35;;;2.08;;
67456;SDS011;54319;52.038;4.640;2023-03-08T01:31:24;2.40;;;2.20;;
67456;SDS011;54319;52.038;4.640;2023-03-08T01:33:52;2.80;;;2.00;;
67456;SDS011;54319;52.038;4.640;2023-03-08T01:36:21;1.75;;;1.65;;
67456;SDS011;54319;52.038;4.640;2023-03-08T01:38:50;4.53;;;2.30;;
67456;SDS011;54319;52.038;4.640;2023-03-08T01:41:18;2.42;;;2.20;;
67456;SDS011;54319;52.038;4.640;2023-03-08T01:43:46;3.17;;;2.45;;
67456;SDS011;54319;52.038;4.640;2023-03-08T01:46:17;4.63;;;2.92;;
67456;SDS011;54319;52.038;4.640;2023-03-08T01:48:53;9.98;;;2.70;;
67456;SDS011;54319;52.038;4.640;2023-03-08T01:51:29;4.88;;;2.72;;
67456;SDS011;54319;52.038;4.640;2023-03-08T01:54:02;13.25;;;3.10;;
67456;SDS011;54319;52.038;4.640;2023-03-08T01:56:32;5.57;;;2.92;;
67456;SDS011;54319;52.038;4.640;2023-03-08T01:58:59;3.10;;;2.80;;
67456;SDS011;54319;52.038;4.640;2023-03-08T02:03:53;5.75;;;2.55;;
67456;SDS011;54319;52.038;4.640;2023-03-08T02:06:20;4.60;;;3.45;;
67456;SDS011;54319;52.038;4.640;2023-03-08T02:08:48;12.52;;;4.22;;
67456;SDS011;54319;52.038;4.640;2023-03-08T02:11:16;6.07;;;3.67;;
67456;SDS011;54319;52.038;4.640;2023-03-08T02:13:44;6.10;;;4.10;;
67456;SDS011;54319;52.038;4.640;2023-03-08T02:16:12;11.50;;;3.60;;
67456;SDS011;54319;52.038;4.640;2023-03-08T02:18:50;11.40;;;4.10;;
67456;SDS011;54319;52.038;4.640;2023-03-08T02:23:46;4.03;;;3.25;;
67456;SDS011;54319;52.038;4.640;2023-03-08T02:26:12;5.90;;;4.38;;
67456;SDS011;54319;52.038;4.640;2023-03-08T02:28:39;13.75;;;4.47;;
67456;SDS011;54319;52.038;4.640;2023-03-08T02:31:06;8.68;;;4.00;;
67456;SDS011;54319;52.038;4.640;2023-03-08T02:33:33;9.05;;;4.53;;
67456;SDS011;54319;52.038;4.640;2023-03-08T02:36:00;7.68;;;4.57;;
67456;SDS011;54319;52.038;4.640;2023-03-08T02:38:26;11.10;;;4.25;;
67456;SDS011;54319;52.038;4.640;2023-03-08T02:40:55;5.80;;;4.22;;
67456;SDS011;54319;52.038;4.640;2023-03-08T02:43:22;6.88;;;4.35;;
67456;SDS011;54319;52.038;4.640;2023-03-08T02:45:49;7.03;;;4.25;;
67456;SDS011;54319;52.038;4.640;2023-03-08T02:48:17;8.90;;;4.57;;
67456;SDS011;54319;52.038;4.640;2023-03-08T02:50:45;7.20;;;4.72;;
67456;SDS011;54319;52.038;4.640;2023-03-08T02:53:11;13.88;;;5.40;;
67456;SDS011;54319;52.038;4.640;2023-03-08T02:55:38;8.50;;;4.82;;
67456;SDS011;54319;52.038;4.640;2023-03-08T02:58:06;11.38;;;5.60;;
67456;SDS011;54319;52.038;4.640;2023-03-08T03:00:34;6.85;;;5.25;;
67456;SDS011;54319;52.038;4.640;2023-03-08T03:03:02;6.97;;;5.18;;
67456;SDS011;54319;52.038;4.640;2023-03-08T03:05:29;6.77;;;5.37;;
67456;SDS011;54319;52.038;4.640;2023-03-08T03:07:56;8.85;;;5.70;;
67456;SDS011;54319;52.038;4.640;2023-03-08T03:10:23;11.50;;;5.53;;
67456;SDS011;54319;52.038;4.640;2023-03-08T03:12:50;7.53;;;5.70;;
67456;SDS011;54319;52.038;4.640;2023-03-08T03:15:18;10.23;;;6.95;;
67456;SDS011;54319;52.038;4.640;2023-03-08T03:17:45;12.43;;;7.95;;
67456;SDS011;54319;52.038;4.640;2023-03-08T03:20:12;8.85;;;6.90;;
67456;SDS011;54319;52.038;4.640;2023-03-08T03:25:06;11.38;;;6.57;;
67456;SDS011;54319;52.038;4.640;2023-03-08T03:27:33;10.52;;;6.90;;
67456;SDS011;54319;52.038;4.640;2023-03-08T03:30:00;12.50;;;7.40;;
67456;SDS011;54319;52.038;4.640;2023-03-08T03:32:29;14.73;;;7.28;;
67456;SDS011;54319;52.038;4.640;2023-03-08T03:34:56;17.25;;;7.82;;
67456;SDS011;54319;52.038;4.640;2023-03-08T03:37:22;13.23;;;8.88;;
67456;SDS011;54319;52.038;4.640;2023-03-08T03:39:49;15.18;;;8.25;;
67456;SDS011;54319;52.038;4.640;2023-03-08T03:42:16;11.65;;;7.80;;
67456;SDS011;54319;52.038;4.640;2023-03-08T03:44:42;15.90;;;8.80;;
67456;SDS011;54319;52.038;4.640;2023-03-08T03:47:09;16.13;;;9.25;;
67456;SDS011;54319;52.038;4.640;2023-03-08T03:49:37;14.37;;;9.97;;
67456;SDS011;54319;52.038;4.640;2023-03-08T03:52:04;15.23;;;9.40;;
67456;SDS011;54319;52.038;4.640;2023-03-08T03:54:31;18.08;;;9.70;;
67456;SDS011;54319;52.038;4.640;2023-03-08T03:56:58;17.13;;;9.67;;
67456;SDS011;54319;52.038;4.640;2023-03-08T03:59:24;16.70;;;10.07;;
67456;SDS011;54319;52.038;4.640;2023-03-08T04:01:51;17.27;;;11.00;;
67456;SDS011;54319;52.038;4.640;2023-03-08T04:04:18;20.77;;;10.43;;
67456;SDS011;54319;52.038;4.640;2023-03-08T04:06:46;20.23;;;11.23;;
67456;SDS011;54319;52.038;4.640;2023-03-08T04:09:13;23.85;;;12.88;;
67456;SDS011;54319;52.038;4.640;2023-03-08T04:11:41;26.42;;;13.70;;
67456;SDS011;54319;52.038;4.640;2023-03-08T04:14:08;27.52;;;14.20;;
67456;SDS011;54319;52.038;4.640;2023-03-08T04:16:36;26.67;;;13.63;;
67456;SDS011;54319;52.038;4.640;2023-03-08T04:19:05;31.05;;;13.45;;
67456;SDS011;54319;52.038;4.640;2023-03-08T04:21:33;25.52;;;13.60;;
67456;SDS011;54319;52.038;4.640;2023-03-08T04:24:04;33.38;;;14.85;;
67456;SDS011;54319;52.038;4.640;2023-03-08T04:26:31;25.38;;;14.05;;
67456;SDS011;54319;52.038;4.640;2023-03-08T04:28:57;20.75;;;13.18;;
67456;SDS011;54319;52.038;4.640;2023-03-08T04:31:25;26.23;;;14.60;;
67456;SDS011;54319;52.038;4.640;2023-03-08T04:33:54;34.83;;;15.23;;
67456;SDS011;54319;52.038;4.640;2023-03-08T04:36:22;28.55;;;14.13;;
67456;SDS011;54319;52.038;4.640;2023-03-08T04:38:49;32.47;;;15.45;;
67456;SDS011;54319;52.038;4.640;2023-03-08T04:41:17;28.83;;;13.77;;
67456;SDS011;54319;52.038;4.640;2023-03-08T04:43:45;23.70;;;13.82;;
67456;SDS011;54319;52.038;4.640;2023-03-08T04:46:13;22.50;;;13.35;;
67456;SDS011;54319;52.038;4.640;2023-03-08T04:48:40;28.85;;;14.98;;
67456;SDS011;54319;52.038;4.640;2023-03-08T04:51:07;28.40;;;14.80;;
67456;SDS011;54319;52.038;4.640;2023-03-08T04:53:35;31.15;;;16.55;;
67456;SDS011;54319;52.038;4.640;2023-03-08T04:56:03;28.25;;;16.02;;
67456;SDS011;54319;52.038;4.640;2023-03-08T04:58:32;31.13;;;17.35;;
67456;SDS011;54319;52.038;4.640;2023-03-08T05:00:58;31.83;;;15.07;;
67456;SDS011;54319;52.038;4.640;2023-03-08T05:03:25;25.15;;;15.00;;
67456;SDS011;54319;52.038;4.640;2023-03-08T05:05:52;26.42;;;15.82;;
67456;SDS011;54319;52.038;4.640;2023-03-08T05:08:21;29.15;;;16.13;;
67456;SDS011;54319;52.038;4.640;2023-03-08T05:10:48;29.90;;;16.85;;
67456;SDS011;54319;52.038;4.640;2023-03-08T05:13:18;33.03;;;17.83;;
67456;SDS011;54319;52.038;4.640;2023-03-08T05:15:48;31.35;;;16.90;;
67456;SDS011;54319;52.038;4.640;2023-03-08T05:18:14;31.15;;;16.35;;
67456;SDS011;54319;52.038;4.640;2023-03-08T05:20:41;36.33;;;16.88;;
67456;SDS011;54319;52.038;4.640;2023-03-08T05:23:07;35.00;;;16.70;;
67456;SDS011;54319;52.038;4.640;2023-03-08T05:25:40;32.67;;;17.63;;
67456;SDS011;54319;52.038;4.640;2023-03-08T05:28:07;29.70;;;16.50;;
67456;SDS011;54319;52.038;4.640;2023-03-08T05:30:33;37.88;;;17.65;;
67456;SDS011;54319;52.038;4.640;2023-03-08T05:33:01;37.42;;;17.75;;
67456;SDS011;54319;52.038;4.640;2023-03-08T05:35:28;40.15;;;18.55;;
67456;SDS011;54319;52.038;4.640;2023-03-08T05:37:54;38.00;;;17.98;;
67456;SDS011;54319;52.038;4.640;2023-03-08T05:40:21;40.70;;;20.15;;
67456;SDS011;54319;52.038;4.640;2023-03-08T05:42:48;47.20;;;21.20;;
67456;SDS011;54319;52.038;4.640;2023-03-08T05:45:14;40.78;;;18.75;;
67456;SDS011;54319;52.038;4.640;2023-03-08T05:47:41;42.13;;;20.67;;
67456;SDS011;54319;52.038;4.640;2023-03-08T05:50:10;45.92;;;19.88;;
67456;SDS011;54319;52.038;4.640;2023-03-08T05:52:37;44.95;;;20.15;;
67456;SDS011;54319;52.038;4.640;2023-03-08T05:55:06;45.13;;;19.65;;
67456;SDS011;54319;52.038;4.640;2023-03-08T05:57:34;60.50;;;20.23;;
67456;SDS011;54319;52.038;4.640;2023-03-08T06:00:01;48.35;;;21.48;;
67456;SDS011;54319;52.038;4.640;2023-03-08T06:02:28;48.75;;;20.98;;
67456;SDS011;54319;52.038;4.640;2023-03-08T06:04:55;46.15;;;23.25;;
67456;SDS011;54319;52.038;4.640;2023-03-08T06:07:23;72.25;;;23.95;;
67456;SDS011;54319;52.038;4.640;2023-03-08T06:09:49;50.05;;;24.45;;
67456;SDS011;54319;52.038;4.640;2023-03-08T06:12:16;49.10;;;23.00;;
67456;SDS011;54319;52.038;4.640;2023-03-08T06:14:43;61.72;;;23.15;;
67456;SDS011;54319;52.038;4.640;2023-03-08T06:17:10;58.83;;;22.02;;
67456;SDS011;54319;52.038;4.640;2023-03-08T06:19:36;66.47;;;22.08;;
67456;SDS011;54319;52.038;4.640;2023-03-08T06:22:03;46.63;;;21.15;;
67456;SDS011;54319;52.038;4.640;2023-03-08T06:24:31;61.63;;;22.73;;
67456;SDS011;54319;52.038;4.640;2023-03-08T06:26:58;56.53;;;22.65;;
67456;SDS011;54319;52.038;4.640;2023-03-08T06:29:24;80.65;;;25.88;;
67456;SDS011;54319;52.038;4.640;2023-03-08T06:31:51;53.50;;;23.83;;
67456;SDS011;54319;52.038;4.640;2023-03-08T06:34:19;68.45;;;23.75;;
67456;SDS011;54319;52.038;4.640;2023-03-08T06:39:12;43.72;;;21.60;;
67456;SDS011;54319;52.038;4.640;2023-03-08T06:41:40;70.22;;;23.05;;
67456;SDS011;54319;52.038;4.640;2023-03-08T06:44:06;50.15;;;23.33;;
67456;SDS011;54319;52.038;4.640;2023-03-08T06:46:33;61.95;;;24.50;;
67456;SDS011;54319;52.038;4.640;2023-03-08T06:49:00;55.10;;;24.83;;
67456;SDS011;54319;52.038;4.640;2023-03-08T06:51:27;57.45;;;24.42;;
67456;SDS011;54319;52.038;4.640;2023-03-08T06:53:53;69.00;;;24.83;;
67456;SDS011;54319;52.038;4.640;2023-03-08T06:56:20;55.55;;;24.63;;
67456;SDS011;54319;52.038;4.640;2023-03-08T06:58:48;54.13;;;24.00;;
67456;SDS011;54319;52.038;4.640;2023-03-08T07:01:15;58.17;;;25.42;;
67456;SDS011;54319;52.038;4.640;2023-03-08T07:03:41;48.25;;;23.73;;
67456;SDS011;54319;52.038;4.640;2023-03-08T07:06:09;59.13;;;24.30;;
67456;SDS011;54319;52.038;4.640;2023-03-08T07:08:36;59.17;;;24.50;;
67456;SDS011;54319;52.038;4.640;2023-03-08T07:11:04;57.00;;;25.75;;
67456;SDS011;54319;52.038;4.640;2023-03-08T07:13:32;55.10;;;25.58;;
67456;SDS011;54319;52.038;4.640;2023-03-08T07:16:05;51.10;;;25.40;;
67456;SDS011;54319;52.038;4.640;2023-03-08T07:18:33;60.92;;;25.90;;
67456;SDS011;54319;52.038;4.640;2023-03-08T07:21:00;56.63;;;24.95;;
67456;SDS011;54319;52.038;4.640;2023-03-08T07:23:27;63.63;;;25.98;;
67456;SDS011;54319;52.038;4.640;2023-03-08T07:25:54;53.72;;;25.67;;
67456;SDS011;54319;52.038;4.640;2023-03-08T07:28:20;59.28;;;26.25;;
67456;SDS011;54319;52.038;4.640;2023-03-08T07:30:48;59.38;;;26.95;;
67456;SDS011;54319;52.038;4.640;2023-03-08T07:33:17;53.00;;;23.92;;
67456;SDS011;54319;52.038;4.640;2023-03-08T07:35:45;63.40;;;25.40;;
67456;SDS011;54319;52.038;4.640;2023-03-08T07:38:12;69.93;;;26.53;;
67456;SDS011;54319;52.038;4.640;2023-03-08T07:40:38;66.47;;;26.48;;
67456;SDS011;54319;52.038;4.640;2023-03-08T07:43:05;58.55;;;26.52;;
67456;SDS011;54319;52.038;4.640;2023-03-08T07:45:32;57.28;;;26.30;;
67456;SDS011;54319;52.038;4.640;2023-03-08T07:47:58;54.55;;;25.00;;
67456;SDS011;54319;52.038;4.640;2023-03-08T07:50:26;57.58;;;25.85;;
67456;SDS011;54319;52.038;4.640;2023-03-08T07:52:53;59.28;;;26.35;;
67456;SDS011;54319;52.038;4.640;2023-03-08T07:55:20;57.45;;;26.80;;
67456;SDS011;54319;52.038;4.640;2023-03-08T07:57:47;60.13;;;27.48;;
67456;SDS011;54319;52.038;4.640;2023-03-08T08:00:13;61.55;;;27.10;;
67456;SDS011;54319;52.038;4.640;2023-03-08T08:02:40;52.97;;;25.58;;
67456;SDS011;54319;52.038;4.640;2023-03-08T08:05:07;58.88;;;26.08;;
67456;SDS011;54319;52.038;4.640;2023-03-08T08:07:37;51.10;;;24.48;;
67456;SDS011;54319;52.038;4.640;2023-03-08T08:10:04;63.83;;;27.40;;
67456;SDS011;54319;52.038;4.640;2023-03-08T08:12:32;48.92;;;23.92;;
67456;SDS011;54319;52.038;4.640;2023-03-08T08:14:59;51.97;;;23.85;;
67456;SDS011;54319;52.038;4.640;2023-03-08T08:17:25;50.35;;;25.10;;
67456;SDS011;54319;52.038;4.640;2023-03-08T08:19:52;56.20;;;24.02;;
67456;SDS011;54319;52.038;4.640;2023-03-08T08:22:19;53.97;;;25.27;;
67456;SDS011;54319;52.038;4.640;2023-03-08T08:24:47;52.85;;;24.33;;
67456;SDS011;54319;52.038;4.640;2023-03-08T08:27:13;49.45;;;22.88;;
67456;SDS011;54319;52.038;4.640;2023-03-08T08:29:40;47.25;;;23.42;;
67456;SDS011;54319;52.038;4.640;2023-03-08T08:32:10;46.70;;;23.10;;
67456;SDS011;54319;52.038;4.640;2023-03-08T08:34:36;49.20;;;22.20;;
67456;SDS011;54319;52.038;4.640;2023-03-08T08:37:03;50.80;;;22.42;;
67456;SDS011;54319;52.038;4.640;2023-03-08T08:39:30;45.80;;;22.95;;
67456;SDS011;54319;52.038;4.640;2023-03-08T08:41:58;47.55;;;20.67;;
67456;SDS011;54319;52.038;4.640;2023-03-08T08:44:25;41.25;;;19.63;;
67456;SDS011;54319;52.038;4.640;2023-03-08T08:46:52;40.33;;;19.90;;
67456;SDS011;54319;52.038;4.640;2023-03-08T08:49:18;38.65;;;18.25;;
67456;SDS011;54319;52.038;4.640;2023-03-08T08:51:45;41.47;;;20.17;;
67456;SDS011;54319;52.038;4.640;2023-03-08T08:54:12;43.60;;;19.17;;
67456;SDS011;54319;52.038;4.640;2023-03-08T08:56:38;45.85;;;19.88;;
67456;SDS011;54319;52.038;4.640;2023-03-08T08:59:08;44.83;;;19.67;;
67456;SDS011;54319;52.038;4.640;2023-03-08T09:01:37;44.13;;;19.58;;
67456;SDS011;54319;52.038;4.640;2023-03-08T09:04:11;42.50;;;18.13;;
67456;SDS011;54319;52.038;4.640;2023-03-08T09:06:40;37.55;;;17.63;;
67456;SDS011;54319;52.038;4.640;2023-03-08T09:09:07;36.15;;;17.98;;
67456;SDS011;54319;52.038;4.640;2023-03-08T09:11:34;38.57;;;17.13;;
67456;SDS011;54319;52.038;4.640;2023-03-08T09:14:01;32.75;;;15.75;;
67456;SDS011;54319;52.038;4.640;2023-03-08T09:16:29;29.30;;;15.23;;
67456;SDS011;54319;52.038;4.640;2023-03-08T09:18:58;30.25;;;13.65;;
67456;SDS011;54319;52.038;4.640;2023-03-08T09:21:26;29.23;;;14.32;;
67456;SDS011;54319;52.038;4.640;2023-03-08T09:23:54;27.45;;;13.95;;
67456;SDS011;54319;52.038;4.640;2023-03-08T09:26:21;28.35;;;13.98;;
67456;SDS011;54319;52.038;4.640;2023-03-08T09:28:48;28.77;;;14.00;;
67456;SDS011;54319;52.038;4.640;2023-03-08T09:31:15;26.58;;;12.90;;
67456;SDS011;54319;52.038;4.640;2023-03-08T09:33:44;24.80;;;12.07;;
67456;SDS011;54319;52.038;4.640;2023-03-08T09:36:13;24.08;;;12.68;;
67456;SDS011;54319;52.038;4.640;2023-03-08T09:38:40;23.42;;;12.52;;
67456;SDS011;54319;52.038;4.640;2023-03-08T09:43:50;24.80;;;12.27;;
67456;SDS011;54319;52.038;4.640;2023-03-08T09:46:37;21.50;;;11.75;;
67456;SDS011;54319;52.038;4.640;2023-03-08T09:49:11;22.15;;;11.40;;
67456;SDS011;54319;52.038;4.640;2023-03-08T09:51:43;24.48;;;12.13;;
67456;SDS011;54319;52.038;4.640;2023-03-08T09:54:13;22.35;;;12.07;;
67456;SDS011;54319;52.038;4.640;2023-03-08T09:56:45;20.75;;;11.55;;
67456;SDS011;54319;52.038;4.640;2023-03-08T09:59:15;17.65;;;10.07;;
67456;SDS011;54319;52.038;4.640;2023-03-08T10:01:49;20.30;;;10.07;;
67456;SDS011;54319;52.038;4.640;2023-03-08T10:04:34;24.08;;;11.23;;
67456;SDS011;54319;52.038;4.640;2023-03-08T10:07:16;22.17;;;10.13;;
67456;SDS011;54319;52.038;4.640;2023-03-08T10:09:51;20.48;;;10.88;;
67456;SDS011;54319;52.038;4.640;2023-03-08T10:12:29;16.70;;;9.00;;
67456;SDS011;54319;52.038;4.640;2023-03-08T10:15:01;15.48;;;9.05;;
67456;SDS011;54319;52.038;4.640;2023-03-08T10:17:33;16.60;;;8.57;;
67456;SDS011;54319;52.038;4.640;2023-03-08T10:20:13;18.17;;;9.60;;
67456;SDS011;54319;52.038;4.640;2023-03-08T10:22:45;17.35;;;9.48;;
67456;SDS011;54319;52.038;4.640;2023-03-08T10:25:18;19.70;;;10.90;;
67456;SDS011;54319;52.038;4.640;2023-03-08T10:27:50;22.52;;;12.00;;
67456;SDS011;54319;52.038;4.640;2023-03-08T10:30:18;26.60;;;11.95;;
67456;SDS011;54319;52.038;4.640;2023-03-08T10:32:48;23.25;;;12.70;;
67456;SDS011;54319;52.038;4.640;2023-03-08T10:35:29;24.02;;;11.57;;
67456;SDS011;54319;52.038;4.640;2023-03-08T10:37:57;19.00;;;9.00;;
67456;SDS011;54319;52.038;4.640;2023-03-08T10:40:23;15.80;;;9.02;;
67456;SDS011;54319;52.038;4.640;2023-03-08T10:42:51;15.73;;;7.60;;
67456;SDS011;54319;52.038;4.640;2023-03-08T10:45:22;13.35;;;7.40;;
67456;SDS011;54319;52.038;4.640;2023-03-08T10:47:53;10.63;;;6.65;;
67456;SDS011;54319;52.038;4.640;2023-03-08T10:50:23;12.82;;;7.25;;
67456;SDS011;54319;52.038;4.640;2023-03-08T10:52:51;13.10;;;7.47;;
67456;SDS011;54319;52.038;4.640;2023-03-08T10:55:19;16.92;;;8.75;;
67456;SDS011;54319;52.038;4.640;2023-03-08T10:57:48;17.67;;;9.68;;
67456;SDS011;54319;52.038;4.640;2023-03-08T11:00:31;18.58;;;9.48;;
67456;SDS011;54319;52.038;4.640;2023-03-08T11:03:06;17.17;;;8.95;;
67456;SDS011;54319;52.038;4.640;2023-03-08T11:05:39;16.77;;;8.52;;
67456;SDS011;54319;52.038;4.640;2023-03-08T11:08:17;15.02;;;8.35;;
67456;SDS011;54319;52.038;4.640;2023-03-08T11:10:46;16.73;;;8.02;;
67456;SDS011;54319;52.038;4.640;2023-03-08T11:13:17;15.73;;;8.40;;
67456;SDS011;54319;52.038;4.640;2023-03-08T11:15:59;15.02;;;8.55;;
67456;SDS011;54319;52.038;4.640;2023-03-08T11:18:36;15.88;;;8.05;;
67456;SDS011;54319;52.038;4.640;2023-03-08T11:21:13;16.13;;;8.10;;
67456;SDS011;54319;52.038;4.640;2023-03-08T11:23:47;14.85;;;7.18;;
67456;SDS011;54319;52.038;4.640;2023-03-08T11:26:23;16.48;;;7.03;;
67456;SDS011;54319;52.038;4.640;2023-03-08T11:29:02;18.05;;;9.23;;
67456;SDS011;54319;52.038;4.640;2023-03-08T11:31:35;13.27;;;7.53;;
67456;SDS011;54319;52.038;4.640;2023-03-08T11:37:08;15.50;;;8.18;;
67456;SDS011;54319;52.038;4.640;2023-03-08T11:39:43;14.07;;;6.93;;
67456;SDS011;54319;52.038;4.640;2023-03-08T11:42:14;16.65;;;7.63;;
67456;SDS011;54319;52.038;4.640;2023-03-08T11:44:54;12.93;;;7.43;;
67456;SDS011;54319;52.038;4.640;2023-03-08T11:47:35;11.25;;;6.80;;
67456;SDS011;54319;52.038;4.640;2023-03-08T11:50:18;11.47;;;6.60;;
67456;SDS011;54319;52.038;4.640;2023-03-08T11:52:52;11.68;;;6.63;;
67456;SDS011;54319;52.038;4.640;2023-03-08T11:55:31;13.40;;;7.10;;
67456;SDS011;54319;52.038;4.640;2023-03-08T11:58:08;14.18;;;7.65;;
67456;SDS011;54319;52.038;4.640;2023-03-08T12:00:41;14.63;;;8.57;;
67456;SDS011;54319;52.038;4.640;2023-03-08T12:03:12;15.05;;;8.90;;
67456;SDS011;54319;52.038;4.640;2023-03-08T12:05:43;20.17;;;9.32;;
67456;SDS011;54319;52.038;4.640;2023-03-08T12:08:15;17.35;;;8.55;;
67456;SDS011;54319;52.038;4.640;2023-03-08T12:10:48;15.80;;;8.68;;
67456;SDS011;54319;52.038;4.640;2023-03-08T12:13:21;15.57;;;8.00;;
67456;SDS011;54319;52.038;4.640;2023-03-08T12:15:53;13.90;;;8.15;;
67456;SDS011;54319;52.038;4.640;2023-03-08T12:18:24;15.60;;;8.30;;
67456;SDS011;54319;52.038;4.640;2023-03-08T12:21:03;16.20;;;9.00;;
67456;SDS011;54319;52.038;4.640;2023-03-08T12:23:41;17.92;;;8.55;;
67456;SDS011;54319;52.038;4.640;2023-03-08T12:26:15;19.27;;;8.50;;
67456;SDS011;54319;52.038;4.640;2023-03-08T12:28:45;17.17;;;8.70;;
67456;SDS011;54319;52.038;4.640;2023-03-08T12:31:22;14.70;;;8.38;;
67456;SDS011;54319;52.038;4.640;2023-03-08T12:33:52;15.25;;;8.50;;
67456;SDS011;54319;52.038;4.640;2023-03-08T12:36:20;15.85;;;8.00;;
67456;SDS011;54319;52.038;4.640;2023-03-08T12:38:49;14.98;;;8.23;;
67456;SDS011;54319;52.038;4.640;2023-03-08T12:41:22;15.48;;;8.02;;
67456;SDS011;54319;52.038;4.640;2023-03-08T12:43:57;16.98;;;8.65;;
67456;SDS011;54319;52.038;4.640;2023-03-08T12:46:25;16.38;;;8.00;;
67456;SDS011;54319;52.038;4.640;2023-03-08T12:48:52;16.58;;;8.32;;
67456;SDS011;54319;52.038;4.640;2023-03-08T12:51:19;14.40;;;7.35;;
67456;SDS011;54319;52.038;4.640;2023-03-08T12:53:57;13.52;;;8.05;;
67456;SDS011;54319;52.038;4.640;2023-03-08T12:56:27;13.93;;;8.20;;
67456;SDS011;54319;52.038;4.640;2023-03-08T12:58:58;16.02;;;7.93;;
67456;SDS011;54319;52.038;4.640;2023-03-08T13:01:29;14.93;;;8.32;;
67456;SDS011;54319;52.038;4.640;2023-03-08T13:04:01;19.88;;;8.18;;
67456;SDS011;54319;52.038;4.640;2023-03-08T13:09:42;16.45;;;8.00;;
67456;SDS011;54319;52.038;4.640;2023-03-08T13:12:19;17.88;;;7.93;;
67456;SDS011;54319;52.038;4.640;2023-03-08T13:14:58;16.45;;;8.05;;
67456;SDS011;54319;52.038;4.640;2023-03-08T13:17:34;14.95;;;7.63;;
67456;SDS011;54319;52.038;4.640;2023-03-08T13:20:09;16.27;;;8.15;;
67456;SDS011;54319;52.038;4.640;2023-03-08T13:22:44;15.93;;;8.20;;
67456;SDS011;54319;52.038;4.640;2023-03-08T13:25:22;20.95;;;8.45;;
67456;SDS011;54319;52.038;4.640;2023-03-08T13:28:02;13.50;;;7.90;;
67456;SDS011;54319;52.038;4.640;2023-03-08T13:30:31;17.48;;;8.13;;
67456;SDS011;54319;52.038;4.640;2023-03-08T13:32:59;15.85;;;8.20;;
67456;SDS011;54319;52.038;4.640;2023-03-08T13:35:31;17.38;;;7.57;;
67456;SDS011;54319;52.038;4.640;2023-03-08T13:37:59;16.50;;;8.30;;
67456;SDS011;54319;52.038;4.640;2023-03-08T13:40:27;15.00;;;7.38;;
67456;SDS011;54319;52.038;4.640;2023-03-08T13:42:56;22.95;;;7.60;;
67456;SDS011;54319;52.038;4.640;2023-03-08T13:45:24;15.52;;;8.02;;
67456;SDS011;54319;52.038;4.640;2023-03-08T13:50:20;17.20;;;7.82;;
67456;SDS011;54319;52.038;4.640;2023-03-08T13:52:51;13.57;;;7.50;;
67456;SDS011;54319;52.038;4.640;2023-03-08T13:55:19;14.77;;;7.05;;
67456;SDS011;54319;52.038;4.640;2023-03-08T13:57:52;16.92;;;7.80;;
67456;SDS011;54319;52.038;4.640;2023-03-08T14:00:25;16.33;;;7.82;;
67456;SDS011;54319;52.038;4.640;2023-03-08T14:02:53;15.68;;;7.88;;
67456;SDS011;54319;52.038;4.640;2023-03-08T14:07:57;15.88;;;7.75;;
67456;SDS011;54319;52.038;4.640;2023-03-08T14:10:26;20.80;;;8.65;;
67456;SDS011;54319;52.038;4.640;2023-03-08T14:12:58;14.50;;;7.75;;
67456;SDS011;54319;52.038;4.640;2023-03-08T14:15:25;19.95;;;8.57;;
67456;SDS011;54319;52.038;4.640;2023-03-08T14:17:52;15.20;;;8.13;;
67456;SDS011;54319;52.038;4.640;2023-03-08T14:20:19;18.40;;;9.57;;
67456;SDS011;54319;52.038;4.640;2023-03-08T14:22:48;19.50;;;8.82;;
67456;SDS011;54319;52.038;4.640;2023-03-08T14:25:20;19.00;;;8.75;;
67456;SDS011;54319;52.038;4.640;2023-03-08T14:27:49;20.80;;;8.57;;
67456;SDS011;54319;52.038;4.640;2023-03-08T14:30:18;25.25;;;9.52;;
67456;SDS011;54319;52.038;4.640;2023-03-08T14:32:54;19.90;;;8.73;;
67456;SDS011;54319;52.038;4.640;2023-03-08T14:35:26;18.67;;;8.95;;
67456;SDS011;54319;52.038;4.640;2023-03-08T14:37:54;19.38;;;9.30;;
67456;SDS011;54319;52.038;4.640;2023-03-08T14:40:24;14.98;;;8.57;;
67456;SDS011;54319;52.038;4.640;2023-03-08T14:42:53;21.77;;;9.70;;
67456;SDS011;54319;52.038;4.640;2023-03-08T14:45:23;24.88;;;9.60;;
67456;SDS011;54319;52.038;4.640;2023-03-08T14:47:58;23.08;;;10.05;;
67456;SDS011;54319;52.038;4.640;2023-03-08T14:50:26;19.50;;;9.80;;
67456;SDS011;54319;52.038;4.640;2023-03-08T14:52:56;21.52;;;9.85;;
67456;SDS011;54319;52.038;4.640;2023-03-08T14:55:24;20.23;;;9.45;;
67456;SDS011;54319;52.038;4.640;2023-03-08T14:57:54;21.00;;;10.18;;
67456;SDS011;54319;52.038;4.640;2023-03-08T15:00:24;21.77;;;10.70;;
67456;SDS011;54319;52.038;4.640;2023-03-08T15:02:53;23.15;;;10.15;;
67456;SDS011;54319;52.038;4.640;2023-03-08T15:05:20;24.27;;;10.97;;
67456;SDS011;54319;52.038;4.640;2023-03-08T15:07:48;21.20;;;9.55;;
67456;SDS011;54319;52.038;4.640;2023-03-08T15:10:18;24.55;;;10.63;;